createdAt,value
2022-08-20T00:02:09.499Z,2.55
2022-08-20T00:04:36.660Z,3.20
2022-08-20T00:07:06.293Z,3.38
2022-08-20T00:09:36.469Z,3.28
2022-08-20T00:12:04.508Z,3.00
2022-08-20T00:14:31.059Z,3.28
2022-08-20T00:17:01.148Z,2.87
2022-08-20T00:19:28.085Z,3.13
2022-08-20T00:21:58.065Z,3.03
2022-08-20T00:24:24.772Z,2.85
2022-08-20T00:26:52.407Z,3.33
2022-08-20T00:29:20.278Z,3.07
2022-08-20T00:31:47.090Z,2.92
2022-08-20T00:34:13.732Z,3.40
2022-08-20T00:36:40.303Z,2.80
2022-08-20T00:39:06.916Z,3.15
2022-08-20T00:41:33.506Z,3.00
2022-08-20T00:44:12.002Z,2.83
2022-08-20T00:46:40.004Z,2.95
2022-08-20T00:49:08.953Z,2.92
2022-08-20T00:51:43.723Z,2.92
2022-08-20T00:54:27.975Z,3.30
2022-08-20T00:57:07.735Z,3.40
2022-08-20T00:59:37.224Z,3.10
2022-08-20T01:02:07.484Z,2.90
2022-08-20T01:04:35.416Z,2.55
2022-08-20T01:07:05.219Z,2.90
2022-08-20T01:09:49.873Z,3.22
2022-08-20T01:12:19.972Z,2.90
2022-08-20T01:14:47.282Z,2.78
2022-08-20T01:17:19.872Z,3.08
2022-08-20T01:19:52.567Z,2.53
2022-08-20T01:22:46.590Z,2.65
2022-08-20T01:25:22.602Z,2.72
2022-08-20T01:27:55.478Z,2.60
2022-08-20T01:30:25.035Z,2.75
2022-08-20T01:32:51.560Z,3.17
2022-08-20T01:35:21.595Z,2.75
2022-08-20T01:37:48.158Z,3.17
2022-08-20T01:40:20.204Z,3.03
2022-08-20T01:42:58.666Z,2.60
2022-08-20T01:45:28.208Z,2.70
2022-08-20T01:47:57.932Z,2.63
2022-08-20T01:50:28.622Z,3.45
2022-08-20T01:53:18.029Z,2.97
2022-08-20T01:55:44.947Z,2.95
2022-08-20T01:58:11.689Z,3.33
2022-08-20T02:00:38.595Z,3.00
2022-08-20T02:03:05.443Z,3.20
2022-08-20T02:05:33.267Z,3.13
2022-08-20T02:08:00.195Z,2.90
2022-08-20T02:10:26.826Z,3.20
2022-08-20T02:12:54.477Z,2.75
2022-08-20T02:15:30.768Z,3.00
2022-08-20T02:18:08.677Z,2.80
2022-08-20T02:20:36.193Z,3.28
2022-08-20T02:23:03.697Z,2.77
2022-08-20T02:25:33.192Z,3.13
2022-08-20T02:28:02.993Z,3.05
2022-08-20T02:30:40.331Z,3.10
2022-08-20T02:33:11.365Z,3.08
2022-08-20T02:35:40.157Z,3.10
2022-08-20T02:38:07.241Z,2.88
2022-08-20T02:40:33.904Z,3.20
2022-08-20T02:43:01.956Z,3.00
2022-08-20T02:45:31.304Z,3.47
2022-08-20T02:47:58.847Z,3.13
2022-08-20T02:50:27.235Z,2.97
2022-08-20T02:52:54.375Z,2.85
2022-08-20T02:55:27.305Z,3.30
2022-08-20T02:58:00.472Z,3.00
2022-08-20T03:00:38.150Z,3.50
2022-08-20T03:03:08.033Z,3.40
2022-08-20T03:05:35.017Z,2.70
2022-08-20T03:08:03.771Z,3.38
2022-08-20T03:10:33.655Z,3.38
2022-08-20T03:13:02.494Z,3.10
2022-08-20T03:15:34.397Z,3.30
2022-08-20T03:18:01.501Z,3.33
2022-08-20T03:20:28.576Z,3.42
2022-08-20T03:22:55.191Z,3.80
2022-08-20T03:25:22.394Z,4.20
2022-08-20T03:27:54.400Z,3.50
2022-08-20T03:30:23.784Z,4.25
2022-08-20T03:32:50.878Z,3.70
2022-08-20T03:35:20.728Z,3.15
2022-08-20T03:37:48.229Z,3.03
2022-08-20T03:40:24.618Z,3.38
2022-08-20T03:42:52.610Z,3.25
2022-08-20T03:45:20.730Z,3.38
2022-08-20T03:47:48.185Z,3.60
2022-08-20T03:50:23.049Z,3.30
2022-08-20T03:52:51.452Z,3.42
2022-08-20T03:55:18.244Z,3.28
2022-08-20T03:57:52.001Z,3.70
2022-08-20T04:00:31.518Z,3.40
2022-08-20T04:02:58.225Z,3.70
2022-08-20T04:05:25.578Z,3.38
2022-08-20T04:07:56.445Z,3.38
2022-08-20T04:10:30.300Z,3.50
2022-08-20T04:12:56.952Z,3.05
2022-08-20T04:15:24.478Z,3.20
2022-08-20T04:17:52.664Z,3.67
2022-08-20T04:20:23.739Z,3.35
2022-08-20T04:22:58.555Z,3.83
2022-08-20T04:25:29.784Z,3.67
2022-08-20T04:28:01.840Z,3.37
2022-08-20T04:30:29.879Z,3.78
2022-08-20T04:32:56.602Z,3.70
2022-08-20T04:35:24.554Z,3.80
2022-08-20T04:38:01.981Z,4.18
2022-08-20T04:40:47.809Z,3.43
2022-08-20T04:43:14.754Z,3.50
2022-08-20T04:45:42.245Z,4.00
2022-08-20T04:48:14.231Z,3.30
2022-08-20T04:50:44.880Z,4.38
2022-08-20T04:53:14.033Z,4.17
2022-08-20T04:55:42.953Z,3.92
2022-08-20T04:58:13.524Z,4.50
2022-08-20T05:00:40.902Z,3.50
2022-08-20T05:03:07.539Z,4.28
2022-08-20T05:05:37.468Z,4.30
2022-08-20T05:08:04.278Z,4.65
2022-08-20T05:10:31.122Z,6.20
2022-08-20T05:12:57.703Z,6.63
2022-08-20T05:15:27.074Z,6.80
2022-08-20T05:18:03.949Z,6.00
2022-08-20T05:20:32.611Z,6.40
2022-08-20T05:23:00.798Z,6.90
2022-08-20T05:25:31.693Z,7.05
2022-08-20T05:28:00.577Z,7.32
2022-08-20T05:30:39.070Z,8.10
2022-08-20T05:33:07.882Z,7.90
2022-08-20T05:35:38.537Z,7.40
2022-08-20T05:38:07.165Z,7.72
2022-08-20T05:40:34.459Z,6.97
2022-08-20T05:43:04.382Z,9.60
2022-08-20T05:45:33.633Z,8.00
2022-08-20T05:48:08.282Z,7.60
2022-08-20T05:50:35.748Z,6.65
2022-08-20T05:53:02.345Z,6.43
2022-08-20T05:55:29.212Z,6.93
2022-08-20T05:58:01.659Z,6.53
2022-08-20T06:00:29.729Z,7.50
2022-08-20T06:03:15.428Z,8.88
2022-08-20T06:05:41.972Z,9.32
2022-08-20T06:08:10.262Z,9.57
2022-08-20T06:10:38.539Z,9.18
2022-08-20T06:13:09.606Z,9.10
2022-08-20T06:15:41.589Z,8.82
2022-08-20T06:18:19.945Z,9.05
2022-08-20T06:20:55.807Z,9.30
2022-08-20T06:23:23.237Z,8.50
2022-08-20T06:25:50.340Z,8.95
2022-08-20T06:28:17.793Z,8.95
2022-08-20T06:30:44.620Z,9.43
2022-08-20T06:33:11.417Z,9.70
2022-08-20T06:35:37.959Z,9.38
2022-08-20T06:38:05.850Z,8.43
2022-08-20T06:40:34.048Z,8.95
2022-08-20T06:43:01.281Z,9.02
2022-08-20T06:45:31.289Z,9.20
2022-08-20T06:48:01.056Z,8.68
2022-08-20T06:50:31.589Z,8.90
2022-08-20T06:52:59.585Z,8.43
2022-08-20T06:55:27.297Z,8.43
2022-08-20T06:58:03.152Z,8.87
2022-08-20T07:00:31.686Z,11.30
2022-08-20T07:03:00.546Z,8.93
2022-08-20T07:05:31.777Z,7.30
2022-08-20T07:07:58.662Z,8.75
2022-08-20T07:10:26.285Z,7.93
2022-08-20T07:12:53.040Z,7.20
2022-08-20T07:15:21.857Z,8.00
2022-08-20T07:17:53.522Z,7.38
2022-08-20T07:20:22.606Z,8.43
2022-08-20T07:22:49.789Z,7.73
2022-08-20T07:25:20.012Z,7.13
2022-08-20T07:27:47.866Z,8.15
2022-08-20T07:30:56.830Z,8.05
2022-08-20T07:33:25.905Z,8.50
2022-08-20T07:35:59.913Z,8.27
2022-08-20T07:38:28.271Z,6.80
2022-08-20T07:40:58.441Z,7.85
2022-08-20T07:43:25.997Z,6.95
2022-08-20T07:46:00.563Z,6.50
2022-08-20T07:48:32.343Z,7.03
2022-08-20T07:51:03.355Z,6.85
2022-08-20T07:53:35.226Z,7.13
2022-08-20T07:56:05.815Z,7.57
2022-08-20T07:58:33.764Z,6.35
2022-08-20T08:01:00.825Z,7.03
2022-08-20T08:03:39.475Z,6.60
2022-08-20T08:06:19.622Z,6.80
2022-08-20T08:08:56.864Z,6.68
2022-08-20T08:11:23.465Z,6.35
2022-08-20T08:13:50.154Z,5.57
2022-08-20T08:16:16.795Z,5.68
2022-08-20T08:18:46.914Z,5.70
2022-08-20T08:21:13.646Z,4.85
2022-08-20T08:23:44.273Z,5.40
2022-08-20T08:26:15.950Z,5.40
2022-08-20T08:28:45.643Z,4.68
2022-08-20T08:31:13.093Z,5.25
2022-08-20T08:33:40.557Z,4.63
2022-08-20T08:36:12.733Z,4.43
2022-08-20T08:38:43.565Z,4.93
2022-08-20T08:41:40.355Z,4.35
2022-08-20T08:44:14.499Z,4.63
2022-08-20T08:46:49.441Z,4.43
2022-08-20T08:49:20.270Z,4.88
2022-08-20T08:52:00.839Z,2.80
2022-08-20T08:54:31.243Z,2.83
2022-08-20T08:56:59.541Z,3.13
2022-08-20T08:59:46.139Z,3.40
2022-08-20T09:02:21.918Z,3.20
2022-08-20T09:04:51.440Z,2.73
2022-08-20T09:07:18.156Z,2.60
2022-08-20T09:09:46.878Z,2.92
2022-08-20T09:12:18.853Z,2.88
2022-08-20T09:14:47.960Z,3.83
2022-08-20T09:17:20.356Z,4.27
2022-08-20T09:19:46.980Z,4.60
2022-08-20T09:22:16.528Z,3.75
2022-08-20T09:24:43.854Z,3.65
2022-08-20T09:27:11.185Z,4.00
2022-08-20T09:29:38.009Z,4.00
2022-08-20T09:32:10.227Z,3.63
2022-08-20T09:34:39.500Z,3.65
2022-08-20T09:37:06.382Z,4.13
2022-08-20T09:39:33.341Z,4.25
2022-08-20T09:42:30.087Z,4.07
2022-08-20T09:44:57.585Z,3.60
2022-08-20T09:47:24.565Z,3.58
2022-08-20T09:49:51.103Z,3.05
2022-08-20T09:52:24.223Z,3.40
2022-08-20T09:54:54.811Z,3.00
2022-08-20T09:57:22.435Z,3.03
2022-08-20T09:59:53.682Z,2.78
2022-08-20T10:02:20.441Z,2.90
2022-08-20T10:04:46.993Z,3.20
2022-08-20T10:07:16.037Z,3.03
2022-08-20T10:09:43.297Z,2.25
2022-08-20T10:12:10.159Z,2.33
2022-08-20T10:14:36.678Z,1.77
2022-08-20T10:17:04.066Z,2.60
2022-08-20T10:19:31.324Z,2.00
2022-08-20T10:21:58.496Z,2.65
2022-08-20T10:24:25.582Z,2.67
2022-08-20T10:26:56.157Z,2.55
2022-08-20T10:29:22.858Z,3.60
2022-08-20T10:31:49.464Z,2.70
2022-08-20T10:34:16.295Z,2.30
2022-08-20T10:36:43.632Z,3.45
2022-08-20T10:39:10.998Z,1.90
2022-08-20T10:41:39.189Z,2.45
2022-08-20T10:44:07.469Z,2.03
2022-08-20T10:46:34.555Z,2.60
2022-08-20T10:49:01.229Z,2.30
2022-08-20T10:51:32.287Z,1.80
2022-08-20T10:53:59.852Z,2.13
2022-08-20T10:56:26.445Z,1.80
2022-08-20T10:58:53.031Z,2.20
2022-08-20T11:01:32.869Z,2.08
2022-08-20T11:04:00.735Z,2.15
2022-08-20T11:06:27.288Z,1.65
2022-08-20T11:08:53.874Z,1.90
2022-08-20T11:11:23.823Z,1.52
2022-08-20T11:13:50.367Z,2.08
2022-08-20T11:16:16.955Z,1.80
2022-08-20T11:18:46.880Z,1.60
2022-08-20T11:21:14.844Z,1.73
2022-08-20T11:23:41.429Z,1.63
2022-08-20T11:26:08.477Z,1.80
2022-08-20T11:28:35.075Z,2.00
2022-08-20T11:31:01.989Z,1.83
2022-08-20T11:33:28.671Z,1.67
2022-08-20T11:35:55.257Z,2.03
2022-08-20T11:38:21.843Z,2.03
2022-08-20T11:40:48.411Z,1.83
2022-08-20T11:43:16.950Z,1.65
2022-08-20T11:45:50.537Z,1.23
2022-08-20T11:48:17.862Z,1.42
2022-08-20T11:50:44.686Z,1.77
2022-08-20T11:53:11.251Z,1.20
2022-08-20T11:55:39.007Z,1.55
2022-08-20T11:58:06.485Z,1.23
2022-08-20T12:00:34.370Z,1.27
2022-08-20T12:03:06.591Z,1.65
2022-08-20T12:05:36.474Z,1.52
2022-08-20T12:08:03.605Z,1.55
2022-08-20T12:10:31.032Z,1.43
2022-08-20T12:12:58.045Z,1.30
2022-08-20T12:15:26.690Z,1.50
2022-08-20T12:17:53.410Z,2.10
2022-08-20T12:20:20.058Z,2.72
2022-08-20T12:22:46.678Z,1.33
2022-08-20T12:25:13.858Z,1.38
2022-08-20T12:27:41.309Z,1.70
2022-08-20T12:30:11.638Z,1.23
2022-08-20T12:32:38.510Z,1.30
2022-08-20T12:35:07.165Z,1.50
2022-08-20T12:37:34.143Z,1.50
2022-08-20T12:40:02.339Z,1.50
2022-08-20T12:42:30.526Z,1.33
2022-08-20T12:44:58.657Z,1.63
2022-08-20T12:47:28.076Z,1.53
2022-08-20T12:50:00.278Z,1.45
2022-08-20T12:52:28.469Z,1.50
2022-08-20T12:54:56.305Z,1.38
2022-08-20T12:57:29.532Z,1.33
2022-08-20T12:59:59.066Z,1.20
2022-08-20T13:02:26.386Z,0.98
2022-08-20T13:04:52.889Z,1.08
2022-08-20T13:07:19.809Z,1.00
2022-08-20T13:09:46.414Z,1.27
2022-08-20T13:12:14.343Z,0.70
2022-08-20T13:14:41.860Z,1.08
2022-08-20T13:17:09.446Z,0.93
2022-08-20T13:19:37.770Z,0.80
2022-08-20T13:22:05.218Z,1.40
2022-08-20T13:24:31.999Z,1.60
2022-08-20T13:27:14.769Z,1.27
2022-08-20T13:29:48.045Z,1.80
2022-08-20T13:32:14.888Z,1.75
2022-08-20T13:34:42.130Z,1.00
2022-08-20T13:37:18.382Z,1.07
2022-08-20T13:39:47.627Z,1.00
2022-08-20T13:42:15.138Z,1.65
2022-08-20T13:44:42.161Z,1.08
2022-08-20T13:47:25.396Z,1.08
2022-08-20T13:50:15.211Z,1.30
2022-08-20T13:52:42.909Z,1.20
2022-08-20T13:55:11.413Z,1.35
2022-08-20T13:57:38.227Z,1.20
2022-08-20T14:00:08.697Z,1.60
2022-08-20T14:02:35.420Z,1.17
2022-08-20T14:05:02.171Z,1.17
2022-08-20T14:07:32.736Z,1.65
2022-08-20T14:10:03.095Z,1.35
2022-08-20T14:12:30.640Z,1.45
2022-08-20T14:14:57.853Z,3.63
2022-08-20T14:17:27.315Z,1.63
2022-08-20T14:20:00.865Z,1.75
2022-08-20T14:22:28.545Z,1.80
2022-08-20T14:24:56.254Z,1.33
2022-08-20T14:27:29.122Z,1.30
2022-08-20T14:29:57.949Z,1.63
2022-08-20T14:32:24.516Z,1.80
2022-08-20T14:34:51.207Z,1.60
2022-08-20T14:37:42.543Z,3.60
2022-08-20T14:40:12.690Z,1.77
2022-08-20T14:42:39.372Z,1.63
2022-08-20T14:45:08.378Z,1.73
2022-08-20T14:47:43.392Z,1.80
2022-08-20T14:50:13.982Z,1.58
2022-08-20T14:52:41.218Z,1.80
2022-08-20T14:55:11.513Z,1.55
2022-08-20T14:57:39.598Z,1.98
2022-08-20T15:00:11.184Z,1.50
2022-08-20T15:02:39.054Z,2.17
2022-08-20T15:05:07.845Z,1.53
2022-08-20T15:07:38.695Z,1.63
2022-08-20T15:10:09.287Z,1.92
2022-08-20T15:12:36.724Z,1.70
2022-08-20T15:15:15.228Z,1.92
2022-08-20T15:17:48.916Z,1.57
2022-08-20T15:20:20.311Z,2.00
2022-08-20T15:22:48.566Z,1.92
2022-08-20T15:25:18.012Z,1.90
2022-08-20T15:27:44.602Z,1.70
2022-08-20T15:30:15.396Z,1.87
2022-08-20T15:32:42.056Z,1.95
2022-08-20T15:35:11.150Z,2.08
2022-08-20T15:37:43.243Z,1.95
2022-08-20T15:40:12.112Z,2.28
2022-08-20T15:42:40.122Z,1.77
2022-08-20T15:45:08.882Z,3.17
2022-08-20T15:47:48.743Z,1.90
2022-08-20T15:50:47.969Z,1.90
2022-08-20T15:53:26.946Z,2.15
2022-08-20T15:56:27.537Z,1.93
2022-08-20T15:59:12.393Z,2.03
2022-08-20T16:02:05.111Z,2.38
2022-08-20T16:04:52.805Z,1.65
2022-08-20T16:08:01.387Z,2.10
2022-08-20T16:10:40.572Z,2.13
2022-08-20T16:13:19.191Z,2.38
2022-08-20T16:15:49.455Z,1.45
2022-08-20T16:18:16.275Z,2.22
2022-08-20T16:20:47.986Z,2.20
2022-08-20T16:23:17.570Z,1.70
2022-08-20T16:26:10.235Z,1.70
2022-08-20T16:28:52.016Z,2.42
2022-08-20T16:31:22.585Z,2.05
2022-08-20T16:34:32.298Z,2.90
2022-08-20T16:37:10.651Z,2.13
2022-08-20T16:39:49.737Z,2.22
2022-08-20T16:42:20.654Z,2.60
2022-08-20T16:44:50.376Z,2.70
2022-08-20T16:47:46.433Z,2.10
2022-08-20T16:50:25.391Z,2.23
2022-08-20T16:52:52.655Z,2.53
2022-08-20T16:55:21.853Z,3.15
2022-08-20T16:57:48.986Z,2.63
2022-08-20T17:00:21.662Z,23.48
2022-08-20T17:03:08.279Z,2.80
2022-08-20T17:05:37.528Z,2.33
2022-08-20T17:08:07.572Z,2.30
2022-08-20T17:10:55.920Z,4.47
2022-08-20T17:13:28.165Z,2.75
2022-08-20T17:15:56.982Z,3.30
2022-08-20T17:18:30.532Z,2.50
2022-08-20T17:21:03.680Z,2.65
2022-08-20T17:23:49.187Z,2.88
2022-08-20T17:26:41.273Z,6.30
2022-08-20T17:29:18.659Z,5.97
2022-08-20T17:31:49.055Z,2.15
2022-08-20T17:34:18.353Z,2.42
2022-08-20T17:37:07.233Z,2.63
2022-08-20T17:39:34.759Z,3.20
2022-08-20T17:42:09.226Z,1.97
2022-08-20T17:44:42.997Z,2.33
2022-08-20T17:47:16.139Z,2.42
2022-08-20T17:49:53.256Z,2.42
2022-08-20T17:52:41.177Z,2.15
2022-08-20T17:55:08.616Z,2.10
2022-08-20T17:57:38.633Z,2.67
2022-08-20T18:00:14.649Z,1.80
2022-08-20T18:02:42.005Z,2.50
2022-08-20T18:05:17.919Z,3.58
2022-08-20T18:08:02.916Z,7.07
2022-08-20T18:10:33.750Z,5.47
2022-08-20T18:13:17.898Z,3.47
2022-08-20T18:15:50.646Z,4.57
2022-08-20T18:18:30.876Z,3.45
2022-08-20T18:21:07.884Z,3.67
2022-08-20T18:23:41.391Z,2.78
2022-08-20T18:26:13.751Z,3.65
2022-08-20T18:28:56.506Z,2.95
2022-08-20T18:31:28.160Z,4.30
2022-08-20T18:33:55.712Z,3.43
2022-08-20T18:36:22.189Z,4.53
2022-08-20T18:39:03.851Z,3.28
2022-08-20T18:41:40.878Z,3.55
2022-08-20T18:44:09.582Z,3.30
2022-08-20T18:46:38.562Z,3.40
2022-08-20T18:49:07.754Z,3.30
2022-08-20T18:51:40.980Z,3.10
2022-08-20T18:54:08.056Z,3.42
2022-08-20T18:56:41.664Z,3.60
2022-08-20T18:59:17.479Z,3.60
2022-08-20T19:01:47.203Z,3.47
2022-08-20T19:04:32.555Z,3.55
2022-08-20T19:07:02.769Z,3.67
2022-08-20T19:09:46.113Z,3.58
2022-08-20T19:12:37.819Z,3.47
2022-08-20T19:15:17.558Z,3.20
2022-08-20T19:18:10.875Z,3.95
2022-08-20T19:20:40.880Z,4.50
2022-08-20T19:23:14.143Z,3.80
2022-08-20T19:25:53.680Z,3.63
2022-08-20T19:28:28.348Z,3.70
2022-08-20T19:30:56.021Z,5.07
2022-08-20T19:33:30.981Z,4.20
2022-08-20T19:36:19.782Z,4.68
2022-08-20T19:38:54.940Z,3.80
2022-08-20T19:41:31.497Z,5.97
2022-08-20T19:43:59.779Z,4.93
2022-08-20T19:46:34.722Z,6.00
2022-08-20T19:49:26.134Z,4.82
2022-08-20T19:52:30.114Z,4.63
2022-08-20T19:55:02.803Z,4.13
2022-08-20T19:57:30.785Z,5.30
2022-08-20T20:00:01.762Z,4.88
2022-08-20T20:02:30.987Z,4.85
2022-08-20T20:04:58.189Z,4.00
2022-08-20T20:07:36.014Z,4.25
2022-08-20T20:10:06.217Z,4.82
2022-08-20T20:12:33.948Z,4.47
2022-08-20T20:15:00.959Z,4.70
2022-08-20T20:17:32.821Z,4.57
2022-08-20T20:20:02.205Z,4.03
2022-08-20T20:22:33.314Z,4.63
2022-08-20T20:25:04.759Z,4.75
2022-08-20T20:27:32.638Z,4.40
2022-08-20T20:30:02.409Z,4.53
2022-08-20T20:32:30.488Z,3.97
2022-08-20T20:35:00.584Z,4.80
2022-08-20T20:37:49.746Z,4.28
2022-08-20T20:40:25.875Z,4.57
2022-08-20T20:43:05.558Z,4.53
2022-08-20T20:45:46.225Z,3.83
2022-08-20T20:48:12.759Z,4.78
2022-08-20T20:50:39.436Z,3.50
2022-08-20T20:53:06.057Z,4.07
2022-08-20T20:55:34.622Z,4.10
2022-08-20T20:58:02.520Z,4.25
2022-08-20T21:00:32.910Z,4.78
2022-08-20T21:03:00.322Z,3.50
2022-08-20T21:05:30.663Z,3.90
2022-08-20T21:08:00.765Z,4.53
2022-08-20T21:10:32.099Z,3.67
2022-08-20T21:12:59.431Z,3.83
2022-08-20T21:15:26.656Z,2.92
2022-08-20T21:17:54.534Z,3.38
2022-08-20T21:20:22.558Z,3.73
2022-08-20T21:22:49.153Z,3.88
2022-08-20T21:25:16.063Z,3.95
2022-08-20T21:27:46.472Z,3.50
2022-08-20T21:30:14.737Z,3.60
2022-08-20T21:32:41.339Z,4.00
2022-08-20T21:35:09.705Z,3.30
2022-08-20T21:37:36.976Z,3.30
2022-08-20T21:40:04.760Z,3.95
2022-08-20T21:42:31.512Z,4.15
2022-08-20T21:44:59.073Z,3.60
2022-08-20T21:47:25.989Z,3.65
2022-08-20T21:49:53.438Z,3.67
2022-08-20T21:52:20.118Z,3.75
2022-08-20T21:54:46.630Z,3.60
2022-08-20T21:57:26.473Z,3.50
2022-08-20T21:59:54.006Z,3.83
2022-08-20T22:02:21.773Z,3.92
2022-08-20T22:04:52.199Z,3.65
2022-08-20T22:07:21.357Z,4.05
2022-08-20T22:09:47.892Z,3.60
2022-08-20T22:12:20.112Z,3.63
2022-08-20T22:14:47.201Z,3.83
2022-08-20T22:17:14.883Z,3.45
2022-08-20T22:19:42.275Z,3.67
2022-08-20T22:22:13.323Z,3.83
2022-08-20T22:24:39.947Z,3.63
2022-08-20T22:27:07.226Z,3.72
2022-08-20T22:29:34.246Z,2.88
2022-08-20T22:32:01.064Z,3.90
2022-08-20T22:34:31.203Z,3.33
2022-08-20T22:36:59.494Z,3.20
2022-08-20T22:39:26.113Z,3.75
2022-08-20T22:41:53.147Z,3.30
2022-08-20T22:44:20.102Z,3.72
2022-08-20T22:46:49.694Z,3.17
2022-08-20T22:49:23.867Z,3.65
2022-08-20T22:51:50.558Z,3.53
2022-08-20T22:54:21.720Z,3.40
2022-08-20T22:56:48.569Z,3.97
2022-08-20T22:59:18.396Z,3.07
2022-08-20T23:01:46.221Z,3.75
2022-08-20T23:04:21.652Z,3.55
2022-08-20T23:06:48.227Z,3.83
2022-08-20T23:09:14.931Z,4.35
2022-08-20T23:11:48.762Z,4.73
2022-08-20T23:14:15.397Z,3.47
2022-08-20T23:16:45.102Z,4.03
2022-08-20T23:19:21.552Z,3.70
2022-08-20T23:21:50.041Z,3.70
2022-08-20T23:24:17.085Z,4.10
2022-08-20T23:26:50.315Z,4.07
2022-08-20T23:29:22.302Z,4.00
2022-08-20T23:31:52.972Z,4.50
2022-08-20T23:34:19.565Z,3.80
2022-08-20T23:36:46.520Z,4.57
2022-08-20T23:39:13.639Z,4.07
2022-08-20T23:41:47.484Z,4.40
2022-08-20T23:44:26.425Z,3.97
2022-08-20T23:47:00.451Z,4.45
2022-08-20T23:49:28.098Z,4.57
2022-08-20T23:51:55.237Z,3.83
2022-08-20T23:54:21.798Z,4.22
2022-08-20T23:56:49.728Z,4.05
2022-08-20T23:59:16.489Z,4.30
